createdAt,value
2023-04-20T00:00:48.623Z,98951.88
2023-04-20T00:04:05.486Z,98945.92
2023-04-20T00:07:22.434Z,98947.76
2023-04-20T00:10:38.957Z,98951.89
2023-04-20T00:13:55.303Z,98945.60
2023-04-20T00:17:12.641Z,98956.66
2023-04-20T00:20:29.816Z,98944.23
2023-04-20T00:23:46.647Z,98949.34
2023-04-20T00:27:15.490Z,98939.59
2023-04-20T00:30:32.512Z,98941.41
2023-04-20T00:33:49.137Z,98938.58
2023-04-20T00:37:05.443Z,98936.58
2023-04-20T00:40:22.260Z,98939.22
2023-04-20T00:43:38.977Z,98935.94
2023-04-20T00:46:57.861Z,98942.84
2023-04-20T00:50:17.532Z,98947.31
2023-04-20T00:53:34.246Z,98949.11
2023-04-20T00:56:50.798Z,98945.15
2023-04-20T01:00:07.897Z,98952.87
2023-04-20T01:03:24.394Z,98941.15
2023-04-20T01:06:41.038Z,98938.03
2023-04-20T01:09:58.150Z,98943.83
2023-04-20T01:13:14.980Z,98949.24
2023-04-20T01:16:32.058Z,98947.58
2023-04-20T01:19:50.037Z,98944.42
2023-04-20T01:23:06.578Z,98945.24
2023-04-20T01:26:25.124Z,98943.95
2023-04-20T01:29:42.518Z,98945.75
2023-04-20T01:32:59.056Z,98946.73
2023-04-20T01:36:17.819Z,98945.75
2023-04-20T01:39:34.506Z,98947.23
2023-04-20T01:42:51.108Z,98946.91
2023-04-20T01:46:08.000Z,98938.34
2023-04-20T01:49:24.435Z,98938.03
2023-04-20T01:52:40.910Z,98940.51
2023-04-20T01:55:59.815Z,98938.55
2023-04-20T01:59:16.822Z,98933.27
2023-04-20T02:02:33.488Z,98932.28
2023-04-20T02:05:51.799Z,98936.58
2023-04-20T02:09:10.052Z,98929.47
2023-04-20T02:12:26.407Z,98938.23
2023-04-20T02:15:42.816Z,98943.36
2023-04-20T02:19:00.060Z,98928.66
2023-04-20T02:22:17.085Z,98929.81
2023-04-20T02:25:33.756Z,98933.60
2023-04-20T02:28:50.066Z,98924.19
2023-04-20T02:32:08.741Z,98928.45
2023-04-20T02:35:25.453Z,98931.47
2023-04-20T02:38:42.185Z,98937.70
2023-04-20T02:41:58.415Z,98936.69
2023-04-20T02:45:18.163Z,98939.19
2023-04-20T02:48:34.802Z,98939.83
2023-04-20T02:51:51.767Z,98932.89
2023-04-20T02:55:09.081Z,98936.20
2023-04-20T02:58:26.661Z,98937.52
2023-04-20T03:02:01.261Z,98942.47
2023-04-20T03:05:19.416Z,98939.31
2023-04-20T03:08:36.734Z,98936.16
2023-04-20T03:11:52.558Z,98926.55
2023-04-20T03:15:12.199Z,98933.18
2023-04-20T03:18:31.805Z,98936.67
2023-04-20T03:21:48.818Z,98935.52
2023-04-20T03:25:05.929Z,98934.20
2023-04-20T03:28:24.193Z,98936.38
2023-04-20T03:31:41.198Z,98931.27
2023-04-20T03:34:58.384Z,98940.20
2023-04-20T03:38:18.225Z,98934.59
2023-04-20T03:41:34.635Z,98936.24
2023-04-20T03:44:52.927Z,98944.03
2023-04-20T03:48:10.292Z,98946.16
2023-04-20T03:51:27.385Z,98946.98
2023-04-20T03:54:43.708Z,98951.59
2023-04-20T03:58:01.869Z,98957.84
2023-04-20T04:01:18.176Z,98957.84
2023-04-20T04:04:36.469Z,98953.58
2023-04-20T04:07:53.236Z,98959.20
2023-04-20T04:11:09.881Z,98952.59
2023-04-20T04:14:26.752Z,98954.94
2023-04-20T04:17:43.434Z,98959.71
2023-04-20T04:21:00.235Z,98958.09
2023-04-20T04:24:17.761Z,98966.66
2023-04-20T04:27:36.625Z,98972.14
2023-04-20T04:30:53.355Z,98968.84
2023-04-20T04:34:09.938Z,98966.84
2023-04-20T04:37:29.093Z,98973.12
2023-04-20T04:40:47.088Z,98971.83
2023-04-20T04:44:04.519Z,98987.17
2023-04-20T04:47:22.951Z,98983.38
2023-04-20T04:50:40.374Z,98991.48
2023-04-20T04:53:56.794Z,98991.14
2023-04-20T04:57:13.281Z,99000.39
2023-04-20T05:00:30.701Z,99009.16
2023-04-20T05:03:47.501Z,99007.03
2023-04-20T05:07:04.000Z,99015.60
2023-04-20T05:10:20.817Z,99014.62
2023-04-20T05:13:37.242Z,99017.57
2023-04-20T05:16:53.992Z,99012.28
2023-04-20T05:20:12.544Z,99016.31
2023-04-20T05:23:31.975Z,99019.79
2023-04-20T05:26:48.173Z,99018.83
2023-04-20T05:30:18.845Z,99026.90
2023-04-20T05:33:22.571Z,99022.96
2023-04-20T05:36:40.828Z,99018.33
2023-04-20T05:39:57.171Z,99020.80
2023-04-20T05:43:14.419Z,99019.16
2023-04-20T05:46:45.749Z,99020.30
2023-04-20T05:50:05.337Z,99027.09
2023-04-20T05:53:29.415Z,99027.27
2023-04-20T05:56:59.602Z,99030.90
2023-04-20T06:00:15.103Z,99030.56
2023-04-20T06:03:31.893Z,99023.45
2023-04-20T06:06:51.910Z,99023.28
2023-04-20T06:10:09.348Z,99022.62
2023-04-20T06:13:27.259Z,99027.91
2023-04-20T06:16:44.174Z,99022.45
2023-04-20T06:20:00.988Z,99010.38
2023-04-20T06:23:18.240Z,99028.06
2023-04-20T06:26:36.078Z,99028.88
2023-04-20T06:29:53.075Z,99024.25
2023-04-20T06:33:12.277Z,99030.84
2023-04-20T06:36:28.760Z,99032.32
2023-04-20T06:39:45.097Z,99032.28
2023-04-20T06:43:01.478Z,99036.70
2023-04-20T06:46:17.854Z,99030.31
2023-04-20T06:49:34.337Z,99036.72
2023-04-20T06:52:50.726Z,99041.44
2023-04-20T06:56:07.839Z,99032.48
2023-04-20T06:59:24.496Z,99036.50
2023-04-20T07:02:52.860Z,99037.73
2023-04-20T07:06:11.279Z,99039.11
2023-04-20T07:09:28.414Z,99044.83
2023-04-20T07:12:46.322Z,99052.80
2023-04-20T07:16:02.791Z,99049.77
2023-04-20T07:19:19.249Z,99057.39
2023-04-20T07:22:35.873Z,99050.91
2023-04-20T07:25:52.187Z,99053.17
2023-04-20T07:29:08.562Z,99061.18
2023-04-20T07:32:25.126Z,99057.66
2023-04-20T07:35:41.735Z,99058.19
2023-04-20T07:38:58.449Z,99060.58
2023-04-20T07:42:15.087Z,99054.80
2023-04-20T07:45:32.616Z,99063.13
2023-04-20T07:48:56.520Z,99059.17
2023-04-20T07:52:17.005Z,99068.08
2023-04-20T07:55:32.029Z,99065.30
2023-04-20T07:58:48.562Z,99059.82
2023-04-20T08:02:09.258Z,99059.63
2023-04-20T08:05:26.110Z,99074.13
2023-04-20T08:08:50.733Z,99079.98
2023-04-20T08:12:07.296Z,99070.95
2023-04-20T08:15:24.263Z,99077.05
2023-04-20T08:18:42.485Z,99077.70
2023-04-20T08:22:03.490Z,99078.42
2023-04-20T08:25:38.756Z,99082.91
2023-04-20T08:29:07.386Z,99082.67
2023-04-20T08:32:25.023Z,99081.47
2023-04-20T08:35:41.609Z,99086.25
2023-04-20T08:39:06.505Z,99087.25
2023-04-20T08:42:23.086Z,99084.04
2023-04-20T08:45:39.814Z,99090.17
2023-04-20T08:48:57.929Z,99088.62
2023-04-20T08:52:14.494Z,99094.39
2023-04-20T08:55:31.242Z,99087.63
2023-04-20T08:58:48.251Z,99090.17
2023-04-20T09:02:06.408Z,99090.56
2023-04-20T09:05:24.729Z,99084.64
2023-04-20T09:08:49.818Z,99087.95
2023-04-20T09:12:13.360Z,99086.16
2023-04-20T09:15:37.846Z,99095.60
2023-04-20T09:19:03.613Z,99095.47
2023-04-20T09:22:21.152Z,99087.42
2023-04-20T09:25:41.788Z,99087.38
2023-04-20T09:28:58.700Z,99095.70
2023-04-20T09:32:17.091Z,99095.19
2023-04-20T09:35:34.545Z,99098.91
2023-04-20T09:38:52.502Z,99101.66
2023-04-20T09:42:12.448Z,99093.15
2023-04-20T09:45:29.478Z,99095.69
2023-04-20T09:48:47.384Z,99094.43
2023-04-20T09:52:06.188Z,99094.16
2023-04-20T09:55:23.125Z,99091.11
2023-04-20T09:58:42.786Z,99085.67
2023-04-20T10:01:59.521Z,99083.65
2023-04-20T10:05:17.648Z,99083.65
2023-04-20T10:08:36.606Z,99076.87
2023-04-20T10:11:54.620Z,99092.38
2023-04-20T10:15:11.732Z,99089.08
2023-04-20T10:18:33.099Z,99080.47
2023-04-20T10:21:57.814Z,99072.48
2023-04-20T10:25:24.997Z,99075.42
2023-04-20T10:28:51.585Z,99078.69
2023-04-20T10:32:08.572Z,99078.36
2023-04-20T10:35:25.040Z,99076.78
2023-04-20T10:38:43.293Z,99076.20
2023-04-20T10:42:07.001Z,99082.91
2023-04-20T10:45:23.586Z,99080.22
2023-04-20T10:48:40.269Z,99079.77
2023-04-20T10:52:01.645Z,99081.80
2023-04-20T10:59:19.514Z,99079.53
2023-04-20T11:02:37.936Z,99074.41
2023-04-20T11:05:58.453Z,99073.23
2023-04-20T11:09:27.660Z,99063.83
2023-04-20T11:12:48.636Z,99071.55
2023-04-20T11:16:05.491Z,99065.55
2023-04-20T11:19:31.313Z,99058.23
2023-04-20T11:22:49.856Z,99066.88
2023-04-20T11:26:07.947Z,99061.91
2023-04-20T11:29:35.875Z,99065.66
2023-04-20T11:32:56.107Z,99059.53
2023-04-20T11:36:12.949Z,99067.97
2023-04-20T11:39:35.327Z,99063.75
2023-04-20T11:42:52.258Z,99064.98
2023-04-20T11:46:12.658Z,99072.72
2023-04-20T11:49:32.712Z,99069.47
2023-04-20T11:52:49.156Z,99060.24
2023-04-20T11:56:05.690Z,99062.56
2023-04-20T11:59:23.631Z,99066.88
2023-04-20T12:02:40.264Z,99070.39
2023-04-20T12:05:56.859Z,99058.48
2023-04-20T12:09:14.371Z,99057.05
2023-04-20T12:12:31.271Z,99067.27
2023-04-20T12:15:50.176Z,99068.11
2023-04-20T12:19:37.728Z,99065.58
2023-04-20T12:23:02.516Z,99058.20
2023-04-20T12:26:29.205Z,99058.38
2023-04-20T12:29:44.108Z,99054.91
2023-04-20T12:33:04.299Z,99053.45
2023-04-20T12:36:26.773Z,99048.92
2023-04-20T12:39:43.384Z,99047.06
2023-04-20T12:43:00.057Z,99035.20
2023-04-20T12:46:16.951Z,99044.51
2023-04-20T12:49:52.050Z,99042.89
2023-04-20T12:53:15.012Z,99031.40
2023-04-20T12:56:44.839Z,99028.13
2023-04-20T13:00:03.791Z,99025.24
2023-04-20T13:03:23.440Z,99019.88
2023-04-20T13:06:40.337Z,99022.55
2023-04-20T13:09:59.470Z,99025.85
2023-04-20T13:13:18.762Z,99025.22
2023-04-20T13:16:35.507Z,99024.20
2023-04-20T13:20:04.763Z,99018.86
2023-04-20T13:23:27.460Z,99021.33
2023-04-20T13:26:44.024Z,99017.81
2023-04-20T13:30:00.444Z,99013.49
2023-04-20T13:33:19.764Z,99022.91
2023-04-20T13:36:36.280Z,99008.94
2023-04-20T13:39:53.399Z,99002.16
2023-04-20T13:43:09.891Z,99005.88
2023-04-20T13:46:26.670Z,99003.03
2023-04-20T13:49:43.124Z,99011.45
2023-04-20T13:53:02.476Z,99005.09
2023-04-20T13:56:20.569Z,98998.31
2023-04-20T13:59:50.493Z,99003.47
2023-04-20T14:03:14.472Z,99003.86
2023-04-20T14:06:32.556Z,99005.94
2023-04-20T14:09:51.848Z,98996.07
2023-04-20T14:13:09.906Z,98994.03
2023-04-20T14:16:28.278Z,98996.48
2023-04-20T14:19:44.825Z,98997.08
2023-04-20T14:23:01.351Z,99001.41
2023-04-20T14:26:29.362Z,98998.95
2023-04-20T14:29:41.352Z,99011.27
2023-04-20T14:33:07.476Z,99005.53
2023-04-20T14:36:27.518Z,99000.58
2023-04-20T14:39:45.310Z,99002.02
2023-04-20T14:43:01.638Z,98998.94
2023-04-20T14:46:18.121Z,99006.34
2023-04-20T14:49:34.837Z,99002.84
2023-04-20T14:52:51.359Z,98999.36
2023-04-20T14:56:10.881Z,98998.13
2023-04-20T14:59:28.004Z,98995.84
2023-04-20T15:02:45.083Z,98999.56
2023-04-20T15:06:05.209Z,99004.48
2023-04-20T15:09:26.654Z,99000.19
2023-04-20T15:12:43.282Z,99000.60
2023-04-20T15:15:59.931Z,99001.00
2023-04-20T15:19:16.606Z,98996.47
2023-04-20T15:22:33.323Z,99000.19
2023-04-20T15:25:53.198Z,98998.11
2023-04-20T15:29:20.625Z,98989.50
2023-04-20T15:32:40.085Z,98995.03
2023-04-20T15:39:42.622Z,98987.64
2023-04-20T15:42:59.662Z,98992.57
2023-04-20T15:46:16.226Z,98985.19
2023-04-20T15:49:33.040Z,98984.34
2023-04-20T15:52:51.744Z,98990.33
2023-04-20T15:56:08.775Z,98988.47
2023-04-20T15:59:26.403Z,98978.61
2023-04-20T16:02:44.234Z,98981.67
2023-04-20T16:06:01.123Z,98982.30
2023-04-20T16:09:23.925Z,98984.70
2023-04-20T16:12:42.079Z,98971.78
2023-04-20T16:16:02.106Z,98975.05
2023-04-20T16:19:18.802Z,98977.09
2023-04-20T16:22:36.551Z,98980.38
2023-04-20T16:29:33.252Z,98983.66
2023-04-20T16:32:49.830Z,98975.02
2023-04-20T16:36:07.127Z,98971.54
2023-04-20T16:39:23.673Z,98971.53
2023-04-20T16:42:40.040Z,98974.17
2023-04-20T16:45:56.652Z,98980.94
2023-04-20T16:49:16.730Z,98973.74
2023-04-20T16:52:33.307Z,98978.05
2023-04-20T16:55:49.647Z,98983.77
2023-04-20T16:59:06.089Z,98986.86
2023-04-20T17:02:22.907Z,98978.22
2023-04-20T17:05:42.231Z,98979.86
2023-04-20T17:09:01.834Z,98975.55
2023-04-20T17:12:18.286Z,98975.11
2023-04-20T17:15:35.104Z,98977.78
2023-04-20T17:18:52.919Z,98978.37
2023-04-20T17:22:09.553Z,98981.02
2023-04-20T17:25:26.076Z,98975.03
2023-04-20T17:28:42.418Z,98981.76
2023-04-20T17:32:02.722Z,98982.52
2023-04-20T17:35:23.942Z,98978.99
2023-04-20T17:38:46.260Z,98984.67
2023-04-20T17:42:02.913Z,98983.53
2023-04-20T17:45:20.271Z,98989.03
2023-04-20T17:48:36.817Z,98983.84
2023-04-20T17:51:53.045Z,98980.05
2023-04-20T17:55:09.981Z,98988.97
2023-04-20T17:58:26.604Z,98978.69
2023-04-20T18:01:43.149Z,98979.45
2023-04-20T18:05:00.442Z,98980.41
2023-04-20T18:08:18.520Z,98981.38
2023-04-20T18:11:35.192Z,98978.38
2023-04-20T18:14:51.770Z,98981.88
2023-04-20T18:18:08.479Z,98982.80
2023-04-20T18:21:25.146Z,98983.45
2023-04-20T18:24:47.493Z,98985.30
2023-04-20T18:28:03.971Z,98982.11
2023-04-20T18:31:20.635Z,98983.95
2023-04-20T18:34:37.866Z,98981.30
2023-04-20T18:37:56.636Z,98981.04
2023-04-20T18:41:13.165Z,98989.38
2023-04-20T18:44:30.158Z,98981.40
2023-04-20T18:47:46.924Z,98984.70
2023-04-20T18:51:03.600Z,98988.12
2023-04-20T18:54:20.718Z,98990.13
2023-04-20T18:57:37.425Z,98986.50
2023-04-20T19:00:56.801Z,98977.45
2023-04-20T19:04:14.698Z,98988.25
2023-04-20T19:07:31.420Z,98981.37
2023-04-20T19:10:48.176Z,98986.42
2023-04-20T19:14:04.979Z,98981.73
2023-04-20T19:17:21.501Z,98979.73
2023-04-20T19:20:38.095Z,98977.19
2023-04-20T19:23:57.723Z,98978.09
2023-04-20T19:27:14.366Z,98969.95
2023-04-20T19:30:31.217Z,98973.04
2023-04-20T19:33:48.446Z,98976.98
2023-04-20T19:37:05.626Z,98979.98
2023-04-20T19:40:24.453Z,98978.24
2023-04-20T19:43:41.790Z,98976.77
2023-04-20T19:46:58.440Z,98972.56
2023-04-20T19:50:16.800Z,98976.22
2023-04-20T19:53:33.738Z,98970.31
2023-04-20T19:56:51.517Z,98979.74
2023-04-20T20:00:08.456Z,98975.47
2023-04-20T20:03:28.396Z,98974.99
2023-04-20T20:06:47.540Z,98976.18
2023-04-20T20:10:05.168Z,98973.23
2023-04-20T20:13:23.878Z,98974.77
2023-04-20T20:16:40.306Z,98968.65
2023-04-20T20:19:57.122Z,98962.40
2023-04-20T20:23:13.987Z,98965.77
2023-04-20T20:26:30.532Z,98964.92
2023-04-20T20:29:47.169Z,98963.63
2023-04-20T20:33:04.723Z,98972.19
2023-04-20T20:36:27.185Z,98966.70
2023-04-20T20:39:44.640Z,98962.91
2023-04-20T20:43:01.828Z,98971.89
2023-04-20T20:46:18.960Z,98965.79
2023-04-20T20:49:35.745Z,98960.92
2023-04-20T20:52:52.358Z,98966.86
2023-04-20T20:56:09.037Z,98971.53
2023-04-20T20:59:25.580Z,98963.33
2023-04-20T21:02:42.891Z,98960.23
2023-04-20T21:05:59.457Z,98970.36
2023-04-20T21:09:16.538Z,98968.77
2023-04-20T21:12:33.651Z,98959.47
2023-04-20T21:15:50.379Z,98967.61
2023-04-20T21:19:07.336Z,98962.99
2023-04-20T21:22:24.154Z,98961.02
2023-04-20T21:25:46.190Z,98959.55
2023-04-20T21:29:14.220Z,98970.00
2023-04-20T21:32:32.897Z,98966.19
2023-04-20T21:35:51.506Z,98976.28
2023-04-20T21:39:09.143Z,98972.16
2023-04-20T21:42:26.444Z,98963.41
2023-04-20T21:45:44.398Z,98974.00
2023-04-20T21:49:10.304Z,98975.69
2023-04-20T21:52:26.970Z,98972.36
2023-04-20T21:55:44.202Z,98973.52
2023-04-20T21:59:01.432Z,98971.05
2023-04-20T22:02:18.133Z,98968.41
2023-04-20T22:05:35.124Z,98963.28
2023-04-20T22:08:52.212Z,98964.13
2023-04-20T22:12:10.010Z,98968.90
2023-04-20T22:15:27.121Z,98963.28
2023-04-20T22:18:43.773Z,98969.22
2023-04-20T22:22:00.406Z,98965.42
2023-04-20T22:25:18.435Z,98955.84
2023-04-20T22:28:35.091Z,98961.78
2023-04-20T22:31:54.120Z,98965.55
2023-04-20T22:35:11.714Z,98963.70
2023-04-20T22:38:28.487Z,98961.06
2023-04-20T22:41:45.458Z,98971.94
2023-04-20T22:45:02.658Z,98972.61
2023-04-20T22:48:19.647Z,98971.30
2023-04-20T22:51:37.064Z,98968.66
2023-04-20T22:54:53.569Z,98966.34
2023-04-20T22:58:10.091Z,98962.86
2023-04-20T23:01:26.616Z,98963.17
2023-04-20T23:04:44.488Z,98964.66
2023-04-20T23:08:01.333Z,98970.14
2023-04-20T23:11:17.763Z,98964.69
2023-04-20T23:14:34.526Z,98967.19
2023-04-20T23:17:51.669Z,98967.86
2023-04-20T23:21:08.468Z,98963.89
2023-04-20T23:24:24.939Z,98979.24
2023-04-20T23:27:41.395Z,98973.95
2023-04-20T23:30:57.981Z,98973.31
2023-04-20T23:34:14.437Z,98974.35
2023-04-20T23:37:30.932Z,98981.27
2023-04-20T23:40:48.479Z,98972.16
2023-04-20T23:44:05.062Z,98979.32
2023-04-20T23:47:21.581Z,98975.02
2023-04-20T23:50:38.337Z,98973.05
2023-04-20T23:53:54.978Z,98977.00
2023-04-20T23:57:11.535Z,98974.86
